Time;durP1;ratioP1;P1;durP2;ratioP2;P2;SDS_P1;SDS_P2;PMS_P1;PMS_P2;Temp;Humidity;BMP_temperature;BMP_pressure;BME280_temperature;BME280_humidity;BME280_pressure;Samples;Min_cycle;Max_cycle;Signal;HPM_P1;HPM_P2
2022/10/04 00:02:23;;;;;;;2.65;1.95;;;21.30;55.70;;;;;;5047199;28;20377;-44
2022/10/04 00:05:07;;;;;;;2.72;1.52;;;21.30;55.70;;;;;;5047329;28;20025;-44
2022/10/04 00:07:39;;;;;;;3.10;1.80;;;21.30;55.70;;;;;;5048796;28;20048;-54
2022/10/04 00:10:17;;;;;;;2.95;1.85;;;21.30;55.70;;;;;;5047040;28;20033;-44
2022/10/04 00:12:59;;;;;;;14.07;2.15;;;21.30;55.70;;;;;;5047043;28;20112;-44
2022/10/04 00:15:27;;;;;;;;;;;21.20;55.60;;;;;;5047780;28;20107;-44
2022/10/04 00:18:28;;;;;;;3.05;1.40;;;21.20;55.60;;;;;;5049597;28;20289;-44
2022/10/04 00:21:01;;;;;;;2.70;1.27;;;21.30;55.60;;;;;;5049697;28;20029;-47
2022/10/04 00:23:40;;;;;;;2.95;2.30;;;21.20;55.50;;;;;;5050721;28;20424;-44
2022/10/04 00:26:14;;;;;;;2.25;1.63;;;21.30;55.60;;;;;;5050014;28;20033;-44
2022/10/04 00:28:46;;;;;;;2.55;2.35;;;21.20;55.50;;;;;;5053817;28;20036;-44
2022/10/04 00:31:21;;;;;;;2.33;1.48;;;21.20;55.50;;;;;;5052116;28;20029;-44
2022/10/04 00:34:07;;;;;;;2.42;1.65;;;21.30;55.60;;;;;;5051304;28;20021;-44
2022/10/04 00:36:49;;;;;;;1.98;1.60;;;21.20;55.50;;;;;;5009724;28;20156;-49
2022/10/04 00:39:24;;;;;;;2.17;1.35;;;21.20;55.50;;;;;;5053104;28;20087;-45
2022/10/04 00:41:49;;;;;;;3.15;1.60;;;21.20;55.40;;;;;;5051794;28;20021;-44
2022/10/04 00:44:26;;;;;;;2.33;1.50;;;21.20;55.40;;;;;;5053077;28;20448;-45
2022/10/04 00:46:55;;;;;;;2.53;1.70;;;21.20;55.40;;;;;;5053335;28;20054;-46
2022/10/04 00:49:25;;;;;;;3.13;1.92;;;21.20;55.40;;;;;;5051145;28;20070;-44
2022/10/04 00:52:00;;;;;;;2.22;1.45;;;21.20;55.40;;;;;;5053439;28;20027;-44
2022/10/04 00:54:43;;;;;;;3.85;1.42;;;21.20;55.40;;;;;;5051689;28;20024;-45
2022/10/04 00:57:23;;;;;;;2.97;1.80;;;21.20;55.30;;;;;;5052997;28;20025;-49
2022/10/04 00:59:54;;;;;;;3.22;1.95;;;21.20;55.40;;;;;;5049087;28;20474;-44
2022/10/04 01:02:27;;;;;;;2.97;1.58;;;21.20;55.30;;;;;;5053085;28;20033;-44
2022/10/04 01:05:01;;;;;;;2.28;1.92;;;21.20;55.30;;;;;;5052425;28;20029;-44
2022/10/04 01:07:35;;;;;;;3.65;1.83;;;21.20;55.30;;;;;;5051879;28;20029;-44
2022/10/04 01:10:14;;;;;;;2.60;1.52;;;21.20;55.20;;;;;;5051403;28;20104;-44
2022/10/04 01:12:51;;;;;;;2.38;1.60;;;21.20;55.30;;;;;;5050028;28;20036;-45
2022/10/04 01:15:24;;;;;;;2.15;1.75;;;21.20;55.30;;;;;;5052523;28;20471;-44
2022/10/04 01:18:09;;;;;;;2.35;1.40;;;21.20;55.20;;;;;;5051648;28;20336;-43
2022/10/04 01:21:06;;;;;;;3.20;1.45;;;21.20;55.20;;;;;;5051642;28;20033;-44
2022/10/04 01:23:33;;;;;;;2.97;1.58;;;21.20;55.20;;;;;;5047122;28;20120;-44
2022/10/04 01:25:59;;;;;;;1.75;1.25;;;21.20;55.10;;;;;;5052582;28;20033;-44
2022/10/04 01:28:25;;;;;;;3.65;1.98;;;21.20;55.10;;;;;;5053365;28;20033;-48
2022/10/04 01:30:52;;;;;;;2.03;1.33;;;21.20;55.10;;;;;;5050915;28;20017;-44
2022/10/04 01:33:18;;;;;;;2.50;1.50;;;21.20;55.20;;;;;;5050922;28;20025;-44
2022/10/04 01:35:44;;;;;;;3.83;1.63;;;21.10;55.00;;;;;;5050997;28;20140;-44
2022/10/04 01:38:11;;;;;;;2.65;1.70;;;21.20;55.10;;;;;;5053498;28;20032;-44
2022/10/04 01:40:46;;;;;;;2.00;1.50;;;21.10;55.10;;;;;;5051701;28;20021;-44
2022/10/04 01:43:17;;;;;;;2.83;2.22;;;21.20;55.10;;;;;;5053043;28;20049;-44
2022/10/04 01:45:50;;;;;;;2.38;1.98;;;21.20;55.10;;;;;;5049605;28;20052;-44
2022/10/04 01:48:23;;;;;;;2.30;1.58;;;21.20;55.10;;;;;;5051668;28;20041;-44
2022/10/04 01:51:13;;;;;;;2.40;1.77;;;21.10;55.00;;;;;;5048024;28;20685;-44
2022/10/04 01:53:53;;;;;;;3.28;1.83;;;21.10;55.10;;;;;;5052523;28;20425;-44
2022/10/04 01:56:24;;;;;;;3.88;1.45;;;21.10;55.00;;;;;;5052099;28;20032;-44
2022/10/04 01:59:15;;;;;;;3.47;1.55;;;21.10;54.90;;;;;;5052077;28;20052;-43
2022/10/04 02:01:54;;;;;;;1.83;1.25;;;21.10;54.90;;;;;;5048616;28;20033;-44
2022/10/04 02:04:26;;;;;;;1.48;1.33;;;21.10;55.00;;;;;;5049701;28;20032;-43
2022/10/04 02:06:55;;;;;;;1.85;1.30;;;21.10;54.90;;;;;;5051884;28;20024;-44
2022/10/04 02:09:32;;;;;;;2.50;1.58;;;21.10;54.80;;;;;;5051427;28;20040;-43
2022/10/04 02:11:59;;;;;;;2.88;1.60;;;21.10;54.90;;;;;;5052080;28;20017;-44
2022/10/04 02:14:28;;;;;;;2.42;1.60;;;21.10;54.90;;;;;;5034071;28;20052;-47
2022/10/04 02:16:54;;;;;;;1.95;1.52;;;21.10;54.90;;;;;;5051678;28;20529;-46
2022/10/04 02:19:31;;;;;;;2.88;1.52;;;21.10;54.80;;;;;;5049265;28;20059;-44
2022/10/04 02:21:58;;;;;;;2.20;1.33;;;21.10;54.90;;;;;;5051900;28;20123;-44
2022/10/04 02:24:23;;;;;;;2.13;1.50;;;21.10;54.80;;;;;;5050340;28;20031;-44
2022/10/04 02:26:51;;;;;;;2.15;1.73;;;21.10;54.80;;;;;;5051631;28;20021;-44
2022/10/04 02:29:19;;;;;;;2.42;1.63;;;21.10;54.70;;;;;;5051295;28;20063;-44
2022/10/04 02:34:31;;;;;;;3.00;1.40;;;21.10;54.70;;;;;;5051353;28;20035;-53
2022/10/04 02:36:59;;;;;;;2.53;1.33;;;21.10;54.80;;;;;;5051813;28;20058;-47
2022/10/04 02:39:29;;;;;;;2.17;1.48;;;21.10;54.70;;;;;;5047902;28;20037;-44
2022/10/04 02:42:02;;;;;;;2.55;1.50;;;21.10;54.80;;;;;;5051475;28;20021;-45
2022/10/04 02:44:39;;;;;;;3.85;1.77;;;21.10;54.70;;;;;;5050845;28;20055;-44
2022/10/04 02:47:20;;;;;;;2.35;1.73;;;21.10;54.70;;;;;;5049511;28;20029;-47
2022/10/04 02:49:51;;;;;;;1.90;1.30;;;21.10;54.70;;;;;;5048823;28;20021;-44
2022/10/04 02:52:17;;;;;;;1.80;1.40;;;21.10;54.70;;;;;;5051695;28;20106;-44
2022/10/04 02:55:01;;;;;;;1.83;1.23;;;21.10;54.70;;;;;;5050313;28;20748;-44
2022/10/04 02:57:29;;;;;;;1.73;1.30;;;21.10;54.70;;;;;;5048065;28;20431;-44
2022/10/04 03:00:14;;;;;;;3.92;1.48;;;21.10;54.70;;;;;;5048158;28;20033;-48
2022/10/04 03:02:40;;;;;;;2.72;1.40;;;21.10;54.70;;;;;;4999172;28;20041;-43
2022/10/04 03:05:10;;;;;;;2.78;1.55;;;21.10;54.60;;;;;;5050846;28;20048;-44
2022/10/04 03:07:37;;;;;;;2.45;1.80;;;21.00;54.60;;;;;;5050824;28;20032;-44
2022/10/04 03:10:10;;;;;;;1.80;1.40;;;21.00;54.50;;;;;;5050450;28;20116;-44
2022/10/04 03:12:37;;;;;;;1.77;1.52;;;21.10;54.60;;;;;;5049101;28;20091;-45
2022/10/04 03:15:09;;;;;;;1.70;1.45;;;21.10;54.60;;;;;;5050753;28;20389;-43
2022/10/04 03:17:35;;;;;;;;;;;21.00;54.60;;;;;;5050938;28;20443;-45
2022/10/04 03:20:03;;;;;;;1.80;1.60;;;21.00;54.60;;;;;;5051046;28;20000;-43
2022/10/04 03:22:31;;;;;;;1.40;1.27;;;21.00;54.50;;;;;;5052113;28;20040;-52
2022/10/04 03:24:58;;;;;;;1.65;1.30;;;21.00;54.50;;;;;;5051686;28;20040;-43
2022/10/04 03:27:33;;;;;;;1.88;1.60;;;21.10;54.50;;;;;;5052048;28;20486;-43
2022/10/04 03:30:00;;;;;;;2.00;1.20;;;21.10;54.60;;;;;;5050142;28;20056;-43
2022/10/04 03:32:29;;;;;;;1.85;1.38;;;21.00;54.50;;;;;;5051009;28;20048;-43
2022/10/04 03:34:57;;;;;;;2.05;1.45;;;21.10;54.50;;;;;;5051026;28;20028;-44
2022/10/04 03:37:25;;;;;;;1.83;1.48;;;21.00;54.50;;;;;;5052361;28;20028;-44
2022/10/04 03:39:53;;;;;;;2.50;1.60;;;21.00;54.40;;;;;;5049515;28;20078;-51
2022/10/04 03:42:26;;;;;;;2.83;1.70;;;21.00;54.40;;;;;;5051883;28;20537;-44
2022/10/04 03:44:58;;;;;;;2.55;1.67;;;21.00;54.40;;;;;;5048895;28;20037;-44
2022/10/04 03:47:28;;;;;;;;;;;21.00;54.50;;;;;;5052391;28;20040;-44
2022/10/04 03:49:57;;;;;;;3.20;1.42;;;21.10;54.50;;;;;;5049938;28;19912;-44
2022/10/04 03:52:27;;;;;;;2.38;1.60;;;21.00;54.40;;;;;;5041932;28;20029;-44
2022/10/04 03:54:59;;;;;;;3.47;1.50;;;21.00;54.40;;;;;;5049998;28;20040;-43
2022/10/04 03:57:24;;;;;;;3.25;1.45;;;21.00;54.40;;;;;;5041750;28;20140;-44
2022/10/04 03:59:51;;;;;;;3.85;1.85;;;21.00;54.40;;;;;;5050269;28;20521;-43
2022/10/04 04:02:26;;;;;;;2.40;1.60;;;21.00;54.40;;;;;;5050581;28;20024;-44
2022/10/04 04:05:04;;;;;;;2.45;1.20;;;21.00;54.40;;;;;;5050667;28;20033;-44
2022/10/04 04:07:42;;;;;;;2.83;1.70;;;21.00;54.30;;;;;;5044413;28;20466;-43
2022/10/04 04:10:25;;;;;;;2.35;1.50;;;21.00;54.30;;;;;;5050261;28;20502;-43
2022/10/04 04:13:28;;;;;;;2.33;1.45;;;21.00;54.40;;;;;;5050801;28;20063;-43
2022/10/04 04:15:55;;;;;;;2.17;1.65;;;21.00;54.30;;;;;;5050022;28;20029;-44
2022/10/04 04:18:23;;;;;;;3.15;1.50;;;21.00;54.30;;;;;;5051782;28;20055;-43
2022/10/04 04:20:51;;;;;;;2.92;1.50;;;21.00;54.40;;;;;;5048633;28;20409;-43
2022/10/04 04:23:22;;;;;;;2.55;1.60;;;21.00;54.30;;;;;;5051785;28;20057;-43
2022/10/04 04:25:53;;;;;;;1.38;1.23;;;21.00;54.30;;;;;;5050071;28;20028;-44
2022/10/04 04:28:23;;;;;;;3.70;1.30;;;21.00;54.30;;;;;;5051783;28;20029;-44
2022/10/04 04:30:52;;;;;;;2.47;1.30;;;21.00;54.30;;;;;;5049353;28;20055;-44
2022/10/04 04:33:47;;;;;;;2.20;1.35;;;21.00;54.30;;;;;;5051437;28;20108;-43
2022/10/04 04:36:14;;;;;;;2.38;1.55;;;21.00;54.30;;;;;;5048362;28;20061;-43
2022/10/04 04:41:30;;;;;;;1.98;1.58;;;21.00;54.30;;;;;;5050992;28;20036;-44
2022/10/04 04:43:56;;;;;;;2.08;1.40;;;21.00;54.20;;;;;;5050158;28;20048;-44
2022/10/04 04:46:23;;;;;;;2.67;1.10;;;21.00;54.30;;;;;;5050639;28;20029;-43
2022/10/04 04:48:56;;;;;;;2.03;1.27;;;21.00;54.30;;;;;;5050056;28;20040;-44
2022/10/04 04:51:24;;;;;;;4.82;1.70;;;21.00;54.20;;;;;;5042812;28;20158;-44
2022/10/04 04:53:51;;;;;;;3.40;1.30;;;21.00;54.20;;;;;;5047341;28;20061;-44
2022/10/04 04:56:22;;;;;;;1.40;1.30;;;21.00;54.20;;;;;;5042502;28;20026;-43
2022/10/04 04:58:50;;;;;;;2.88;1.25;;;21.00;54.20;;;;;;5049484;28;20100;-44
2022/10/04 05:01:21;;;;;;;2.78;1.77;;;21.00;54.20;;;;;;5050399;28;20037;-43
2022/10/04 05:04:11;;;;;;;2.70;2.30;;;21.00;54.10;;;;;;5050715;28;20437;-43
2022/10/04 05:06:45;;;;;;;1.95;1.73;;;21.00;54.20;;;;;;5043042;28;20025;-56
2022/10/04 05:09:40;;;;;;;1.95;1.50;;;21.00;54.20;;;;;;5050600;28;20073;-44
2022/10/04 05:12:14;;;;;;;2.05;1.63;;;21.00;54.10;;;;;;5033780;28;20037;-43
2022/10/04 05:14:46;;;;;;;2.55;1.52;;;21.00;54.10;;;;;;5049549;28;20036;-44
2022/10/04 05:17:21;;;;;;;1.77;1.20;;;21.00;54.10;;;;;;5054101;28;20059;-44
2022/10/04 05:19:48;;;;;;;1.63;1.33;;;21.00;54.10;;;;;;5053779;28;20469;-44
2022/10/04 05:22:19;;;;;;;1.65;1.20;;;21.00;54.10;;;;;;5054769;28;20108;-44
2022/10/04 05:24:47;;;;;;;2.60;1.53;;;21.00;54.10;;;;;;5051829;28;20036;-44
2022/10/04 05:27:27;;;;;;;2.20;1.35;;;21.00;54.10;;;;;;5054017;28;20115;-44
2022/10/04 05:30:31;;;;;;;1.83;1.40;;;20.90;54.00;;;;;;5052646;28;20044;-43
2022/10/04 05:33:01;;;;;;;1.80;1.38;;;21.00;54.10;;;;;;5031124;28;20033;-43
2022/10/04 05:35:28;;;;;;;2.85;1.33;;;21.00;54.10;;;;;;5052970;28;20071;-43
2022/10/04 05:38:15;;;;;;;1.98;1.70;;;21.00;54.10;;;;;;5053816;28;20041;-43
2022/10/04 05:41:08;;;;;;;2.03;1.50;;;20.90;54.00;;;;;;5053195;28;20033;-45
2022/10/04 05:43:36;;;;;;;1.75;1.45;;;20.90;54.10;;;;;;5048491;28;20045;-44
2022/10/04 05:46:12;;;;;;;2.63;1.10;;;20.90;54.00;;;;;;5052036;28;20029;-44
2022/10/04 05:48:42;;;;;;;6.82;1.50;;;21.00;54.20;;;;;;5053439;28;20052;-54
2022/10/04 05:51:27;;;;;;;3.50;1.30;;;21.00;54.50;;;;;;5047684;28;20079;-45
2022/10/04 05:53:56;;;;;;;5.30;1.50;;;21.00;54.70;;;;;;5051424;28;20127;-45
2022/10/04 05:57:01;;;;;;;3.60;1.50;;;21.00;55.00;;;;;;5052874;28;20414;-45
2022/10/04 06:00:05;;;;;;;3.00;1.77;;;20.90;54.70;;;;;;5044761;28;20033;-45
2022/10/04 06:02:53;;;;;;;4.00;1.60;;;20.90;51.40;;;;;;5041801;28;20045;-45
2022/10/04 06:05:25;;;;;;;2.30;1.80;;;20.90;51.60;;;;;;5052603;28;20021;-45
2022/10/04 06:08:00;;;;;;;5.35;2.00;;;20.80;51.20;;;;;;5053029;28;20465;-46
2022/10/04 06:10:47;;;;;;;18.50;3.35;;;20.90;49.60;;;;;;5054323;28;20025;-40
2022/10/04 06:13:24;;;;;;;3.97;2.47;;;20.90;48.70;;;;;;5044785;28;20425;-40
2022/10/04 06:16:20;;;;;;;3.50;1.65;;;20.90;50.00;;;;;;5045574;28;20021;-39
2022/10/04 06:19:32;;;;;;;4.95;1.58;;;20.80;51.60;;;;;;5052328;28;20063;-43
2022/10/04 06:22:13;;;;;;;3.47;1.77;;;20.90;51.80;;;;;;5042987;28;20673;-40
2022/10/04 06:24:43;;;;;;;5.60;1.63;;;20.90;52.60;;;;;;5050906;28;20082;-43
2022/10/04 06:27:11;;;;;;;3.80;1.67;;;20.90;53.20;;;;;;5053809;28;20029;-40
2022/10/04 06:29:42;;;;;;;3.95;1.70;;;20.90;53.30;;;;;;5052663;28;20025;-47
2022/10/04 06:32:10;;;;;;;2.65;1.77;;;20.90;53.30;;;;;;5053638;28;20051;-40
2022/10/04 06:35:18;;;;;;;3.22;1.30;;;21.00;53.50;;;;;;5052199;28;20030;-40
2022/10/04 06:38:19;;;;;;;2.85;1.63;;;21.00;53.50;;;;;;5036795;28;20440;-39
2022/10/04 06:41:14;;;;;;;4.88;1.90;;;21.00;53.60;;;;;;5051056;28;20393;-40
2022/10/04 06:43:49;;;;;;;3.55;1.55;;;21.00;53.60;;;;;;5041356;28;20053;-52
2022/10/04 06:46:29;;;;;;;4.68;1.90;;;21.00;53.60;;;;;;5052202;28;20029;-39
2022/10/04 06:49:16;;;;;;;3.72;1.85;;;21.00;53.70;;;;;;5051195;28;20035;-39
2022/10/04 06:52:07;;;;;;;3.00;1.80;;;21.00;53.70;;;;;;5052250;28;20040;-53
2022/10/04 06:54:52;;;;;;;2.83;1.70;;;21.00;53.80;;;;;;5044628;28;20036;-41
2022/10/04 06:57:38;;;;;;;3.25;1.65;;;21.00;54.20;;;;;;5049351;28;20040;-39
2022/10/04 07:00:12;;;;;;;4.00;1.90;;;21.00;54.20;;;;;;5051065;28;20048;-39
2022/10/04 07:03:15;;;;;;;3.03;1.67;;;21.00;54.30;;;;;;5052334;28;20023;-54
2022/10/04 07:05:45;;;;;;;2.92;1.70;;;21.00;54.20;;;;;;5030359;28;20037;-54
2022/10/04 07:11:21;;;;;;;2.90;1.77;;;21.00;54.00;;;;;;5038152;28;20080;-42
2022/10/04 07:13:59;;;;;;;3.17;1.88;;;21.00;54.00;;;;;;5051710;28;20083;-39
2022/10/04 07:16:48;;;;;;;4.30;1.73;;;21.00;54.00;;;;;;5051576;28;20044;-41
2022/10/04 07:19:36;;;;;;;4.88;1.55;;;21.00;54.00;;;;;;5049597;28;20029;-46
2022/10/04 07:22:08;;;;;;;4.25;2.05;;;21.00;54.10;;;;;;5045955;28;20022;-41
2022/10/04 07:24:55;;;;;;;2.92;1.38;;;21.00;54.10;;;;;;5049131;28;20040;-40
2022/10/04 07:27:46;;;;;;;2.17;1.50;;;21.00;54.00;;;;;;5052073;28;20413;-40
2022/10/04 07:30:17;;;;;;;2.92;1.48;;;21.00;54.30;;;;;;5045573;28;20413;-40
2022/10/04 07:32:47;;;;;;;2.85;1.60;;;21.00;54.10;;;;;;5050464;28;20025;-49
2022/10/04 07:35:34;;;;;;;3.20;1.83;;;21.00;54.00;;;;;;5048724;28;20030;-43
2022/10/04 07:38:12;;;;;;;4.25;1.80;;;21.00;54.00;;;;;;5049542;28;20064;-40
2022/10/04 07:41:06;;;;;;;2.63;1.92;;;21.00;54.00;;;;;;5051432;28;20025;-37
2022/10/04 07:43:37;;;;;;;2.25;1.65;;;21.00;54.70;;;;;;5004588;28;20084;-37
2022/10/04 07:46:21;;;;;;;3.67;1.80;;;21.00;54.00;;;;;;5050755;28;20036;-37
2022/10/04 07:48:49;;;;;;;3.13;1.75;;;21.00;54.00;;;;;;5050894;28;20032;-39
2022/10/04 07:51:34;;;;;;;4.00;1.80;;;21.00;53.90;;;;;;5050678;28;20478;-39
2022/10/04 07:54:34;;;;;;;3.17;1.63;;;20.90;53.80;;;;;;5051039;28;20120;-39
2022/10/04 07:57:07;;;;;;;2.25;1.80;;;21.00;53.70;;;;;;5011189;28;20546;-37
2022/10/04 07:59:44;;;;;;;3.20;1.55;;;21.00;53.70;;;;;;5050805;28;20052;-39
2022/10/04 08:02:37;;;;;;;2.53;1.52;;;21.00;53.70;;;;;;5051721;28;20071;-39
2022/10/04 08:05:22;;;;;;;1.98;1.40;;;21.00;53.60;;;;;;5050393;28;20028;-40
2022/10/04 08:08:12;;;;;;;2.35;1.60;;;21.00;53.60;;;;;;5046485;28;20040;-39
2022/10/04 08:11:23;;;;;;;1.60;1.23;;;21.00;53.50;;;;;;5048608;28;20075;-39
2022/10/04 08:14:00;;;;;;;2.72;1.45;;;21.00;53.60;;;;;;5050651;28;20486;-38
2022/10/04 08:16:36;;;;;;;3.38;1.80;;;21.00;53.60;;;;;;5045408;28;20036;-39
2022/10/04 08:19:18;;;;;;;2.55;1.73;;;21.00;53.50;;;;;;5050702;28;20207;-37
2022/10/04 08:21:54;;;;;;;;;;;21.00;53.60;;;;;;5047655;28;20521;-37
2022/10/04 08:24:31;;;;;;;3.22;2.35;;;21.10;53.60;;;;;;5050059;28;19911;-37
2022/10/04 08:27:17;;;;;;;1.52;1.38;;;21.10;53.70;;;;;;5050623;28;20044;-37
2022/10/04 08:30:14;;;;;;;2.95;1.50;;;21.10;53.60;;;;;;5050077;28;20032;-37
2022/10/04 08:32:53;;;;;;;2.15;1.67;;;21.10;53.80;;;;;;5046184;28;20522;-39
2022/10/04 08:35:32;;;;;;;2.08;1.90;;;21.10;53.80;;;;;;5043236;28;20075;-40
2022/10/04 08:38:41;;;;;;;5.03;2.08;;;21.10;53.70;;;;;;5050212;28;20032;-39
2022/10/04 08:41:23;;;;;;;2.25;1.83;;;21.10;53.80;;;;;;5050449;28;20492;-39
2022/10/04 08:44:16;;;;;;;2.58;1.30;;;21.10;53.70;;;;;;5051707;28;20409;-40
2022/10/04 08:47:04;;;;;;;2.25;1.75;;;21.10;53.60;;;;;;5047843;28;20420;-54
2022/10/04 08:49:37;;;;;;;2.97;1.45;;;21.20;53.70;;;;;;5054457;28;20025;-40
2022/10/04 08:52:08;;;;;;;2.80;1.60;;;21.20;53.70;;;;;;5034256;28;20025;-39
2022/10/04 08:55:10;;;;;;;3.17;1.70;;;21.20;53.70;;;;;;5054066;28;20064;-39
2022/10/04 08:58:07;;;;;;;2.70;1.67;;;21.20;53.80;;;;;;5054851;28;20067;-52
2022/10/04 09:00:56;;;;;;;2.70;1.58;;;21.20;53.70;;;;;;5054034;28;20106;-39
2022/10/04 09:03:43;;;;;;;1.73;1.50;;;21.20;53.70;;;;;;5054445;28;20607;-40
2022/10/04 09:06:27;;;;;;;3.15;1.42;;;21.20;53.70;;;;;;5046461;28;20067;-39
2022/10/04 09:09:33;;;;;;;3.92;1.83;;;21.20;53.70;;;;;;5050659;28;20398;-40
2022/10/04 09:12:49;;;;;;;2.08;1.60;;;21.20;53.70;;;;;;5053591;28;20535;-39
2022/10/04 09:15:25;;;;;;;2.83;1.58;;;21.20;53.70;;;;;;5033663;28;20045;-40
2022/10/04 09:18:06;;;;;;;2.25;1.60;;;21.20;53.70;;;;;;5053913;28;20504;-39
2022/10/04 09:20:59;;;;;;;2.85;1.70;;;21.20;53.80;;;;;;5053536;28;20025;-39
2022/10/04 09:23:32;;;;;;;2.45;1.60;;;21.20;53.70;;;;;;5008723;28;20052;-39
2022/10/04 09:26:17;;;;;;;2.40;1.45;;;21.20;53.80;;;;;;5052618;28;20039;-40
2022/10/04 09:29:19;;;;;;;2.13;1.33;;;21.20;53.70;;;;;;5047715;28;20025;-53
2022/10/04 09:31:46;;;;;;;2.58;1.55;;;21.20;53.80;;;;;;5053803;28;20029;-54
2022/10/04 09:34:21;;;;;;;6.60;2.00;;;21.20;53.80;;;;;;5053842;28;20025;-40
2022/10/04 09:37:12;;;;;;;3.33;1.95;;;21.20;53.80;;;;;;5053307;28;20047;-54
2022/10/04 09:40:07;;;;;;;2.75;1.50;;;21.30;54.00;;;;;;5053056;28;20466;-39
2022/10/04 09:42:41;;;;;;;2.08;1.55;;;21.30;54.00;;;;;;5054165;28;20032;-39
2022/10/04 09:45:49;;;;;;;2.50;1.42;;;21.20;54.00;;;;;;5052980;28;20216;-39
2022/10/04 09:48:52;;;;;;;2.35;1.40;;;21.30;54.30;;;;;;5044551;28;20478;-39
2022/10/04 09:51:24;;;;;;;;;;;21.20;54.30;;;;;;4969679;28;20052;-40
2022/10/04 09:54:10;;;;;;;2.05;1.25;;;21.30;54.30;;;;;;5052125;28;19920;-44
2022/10/04 09:56:52;;;;;;;3.20;1.77;;;21.30;54.90;;;;;;5050075;28;20029;-39
2022/10/04 09:59:35;;;;;;;;;;;21.30;54.40;;;;;;5053481;28;20068;-39
2022/10/04 10:02:15;;;;;;;2.65;1.30;;;21.30;54.40;;;;;;5052907;28;20007;-39
2022/10/04 10:05:03;;;;;;;2.40;1.25;;;21.30;54.50;;;;;;5053044;28;20029;-39
2022/10/04 10:07:55;;;;;;;3.10;1.30;;;21.30;54.50;;;;;;5045883;28;20064;-39
2022/10/04 10:13:54;;;;;;;3.10;1.58;;;21.30;54.60;;;;;;5052958;28;20505;-39
2022/10/04 10:16:40;;;;;;;11.27;1.27;;;21.30;54.70;;;;;;5052928;28;20466;-39
2022/10/04 10:19:56;;;;;;;2.03;1.25;;;21.30;54.70;;;;;;5047546;28;20056;-45
2022/10/04 10:22:40;;;;;;;2.08;1.45;;;21.30;54.70;;;;;;4953176;29;20027;-39
2022/10/04 10:25:16;;;;;;;5.63;1.73;;;21.30;54.80;;;;;;4951338;29;20031;-39
2022/10/04 10:28:00;;;;;;;2.85;1.75;;;21.30;54.90;;;;;;5017792;28;20522;-40
2022/10/04 10:31:04;;;;;;;3.92;1.80;;;21.30;55.00;;;;;;5048767;28;20021;-39
2022/10/04 10:33:41;;;;;;;4.40;1.27;;;21.30;55.10;;;;;;5052958;28;20035;-42
2022/10/04 10:36:25;;;;;;;2.10;1.38;;;21.30;55.20;;;;;;5051903;28;20043;-39
2022/10/04 10:39:19;;;;;;;3.42;1.25;;;21.30;55.20;;;;;;5052837;28;20021;-42
2022/10/04 10:42:11;;;;;;;5.78;1.77;;;21.40;55.40;;;;;;5049232;28;20031;-40
2022/10/04 10:45:14;;;;;;;2.08;1.00;;;21.40;55.80;;;;;;5046293;28;20056;-39
2022/10/04 10:48:05;;;;;;;2.45;1.27;;;21.40;56.40;;;;;;5047358;28;20044;-40
2022/10/04 10:50:57;;;;;;;2.63;1.48;;;21.40;56.40;;;;;;5044511;28;20027;-40
2022/10/04 10:53:58;;;;;;;1.80;1.25;;;21.40;56.40;;;;;;5049679;28;20446;-40
2022/10/04 10:56:54;;;;;;;1.77;1.23;;;21.40;56.60;;;;;;5050004;28;21362;-39
2022/10/04 10:59:28;;;;;;;1.60;1.10;;;21.40;56.60;;;;;;5050076;28;20029;-39
2022/10/04 11:02:04;;;;;;;2.80;0.98;;;21.40;56.60;;;;;;5051377;28;20029;-44
2022/10/04 11:04:59;;;;;;;2.13;1.60;;;21.40;56.70;;;;;;5039867;28;20028;-40
2022/10/04 11:07:33;;;;;;;2.55;1.52;;;21.40;56.80;;;;;;5046780;28;20053;-40
2022/10/04 11:10:30;;;;;;;1.20;0.90;;;21.40;56.70;;;;;;5048577;28;20057;-47
2022/10/04 11:13:10;;;;;;;2.15;0.98;;;21.40;56.60;;;;;;5048303;28;20079;-39
2022/10/04 11:15:48;;;;;;;1.98;1.50;;;21.50;56.70;;;;;;5046931;28;20025;-42
2022/10/04 11:18:56;;;;;;;4.57;1.23;;;21.40;56.70;;;;;;5051462;28;20082;-39
2022/10/04 11:21:38;;;;;;;1.85;1.20;;;21.40;56.70;;;;;;5044226;28;20417;-42
2022/10/04 11:24:12;;;;;;;2.13;1.50;;;21.50;56.70;;;;;;5048409;28;20025;-39
2022/10/04 11:26:54;;;;;;;3.70;1.52;;;21.50;56.70;;;;;;5051725;28;20425;-39
2022/10/04 11:29:54;;;;;;;2.15;1.10;;;21.50;56.70;;;;;;5050958;28;20501;-39
2022/10/04 11:32:56;;;;;;;2.25;1.10;;;21.50;56.70;;;;;;5052273;28;20052;-39
2022/10/04 11:35:35;;;;;;;;;;;21.50;56.70;;;;;;5051615;28;20035;-39
2022/10/04 11:38:32;;;;;;;4.85;1.55;;;21.50;56.70;;;;;;5044076;28;19904;-39
2022/10/04 11:41:16;;;;;;;1.42;1.25;;;21.50;56.70;;;;;;5049824;28;20095;-39
2022/10/04 11:43:56;;;;;;;6.32;1.48;;;21.50;56.70;;;;;;5050882;28;20048;-39
2022/10/04 11:46:54;;;;;;;1.40;1.30;;;21.40;56.70;;;;;;5051129;28;20063;-39
2022/10/04 11:49:44;;;;;;;3.25;1.00;;;21.50;56.70;;;;;;5050539;28;20037;-40
2022/10/04 11:52:49;;;;;;;2.55;1.20;;;21.50;56.90;;;;;;5050727;28;20151;-39
2022/10/04 11:55:41;;;;;;;2.92;1.10;;;21.50;57.10;;;;;;5036334;28;20048;-39
2022/10/04 11:58:43;;;;;;;2.72;1.23;;;21.50;57.10;;;;;;5020827;28;20090;-39
2022/10/04 12:01:39;;;;;;;2.38;0.98;;;21.50;57.10;;;;;;5046419;28;20602;-39
2022/10/04 12:04:33;;;;;;;3.72;1.02;;;21.50;57.20;;;;;;5047694;28;20040;-39
2022/10/04 12:06:59;;;;;;;4.63;1.20;;;21.50;57.10;;;;;;5039658;28;20136;-39
2022/10/04 12:09:31;;;;;;;2.92;1.10;;;21.50;57.10;;;;;;5050239;28;20080;-40
2022/10/04 12:12:37;;;;;;;1.73;1.00;;;21.50;57.10;;;;;;5048485;28;20493;-39
2022/10/04 12:15:30;;;;;;;2.97;1.20;;;21.50;57.10;;;;;;5039382;28;20021;-39
2022/10/04 12:18:25;;;;;;;2.25;1.13;;;21.50;57.10;;;;;;5041945;28;20429;-39
2022/10/04 12:21:28;;;;;;;2.35;0.95;;;21.50;57.10;;;;;;5048892;28;20028;-53
2022/10/04 12:24:08;;;;;;;4.53;1.52;;;21.50;57.00;;;;;;5048626;28;20508;-39
2022/10/04 12:26:53;;;;;;;2.05;1.00;;;21.50;57.10;;;;;;5039283;28;20060;-39
2022/10/04 12:30:01;;;;;;;1.08;0.82;;;21.50;57.10;;;;;;5044317;28;20021;-39
2022/10/04 12:33:04;;;;;;;1.27;1.17;;;21.50;57.10;;;;;;5051122;28;20029;-39
2022/10/04 12:35:57;;;;;;;1.55;0.98;;;21.60;57.10;;;;;;5025011;28;20041;-39
2022/10/04 12:38:53;;;;;;;2.67;0.80;;;21.60;57.20;;;;;;5050717;28;20037;-39
2022/10/04 12:41:45;;;;;;;2.42;1.02;;;21.50;57.00;;;;;;5043278;28;20424;-39
2022/10/04 12:44:47;;;;;;;1.67;1.00;;;21.60;57.10;;;;;;5006484;28;20056;-49
2022/10/04 12:47:40;;;;;;;6.13;1.10;;;21.60;57.10;;;;;;5046539;28;20039;-39
2022/10/04 12:50:40;;;;;;;2.08;1.02;;;21.60;57.10;;;;;;5045764;28;20037;-42
2022/10/04 12:53:33;;;;;;;1.95;0.90;;;21.60;57.10;;;;;;5042518;28;20347;-39
2022/10/04 12:56:27;;;;;;;1.90;1.30;;;21.60;57.10;;;;;;5049053;28;20040;-39
2022/10/04 12:58:58;;;;;;;2.60;1.10;;;21.60;57.10;;;;;;5049297;28;20037;-44
2022/10/04 13:01:50;;;;;;;4.15;1.15;;;21.60;57.10;;;;;;5049667;28;20377;-39
2022/10/04 13:04:51;;;;;;;2.83;1.05;;;21.60;57.20;;;;;;5048312;28;20037;-39
2022/10/04 13:07:29;;;;;;;2.70;1.10;;;21.60;57.40;;;;;;5028107;28;20112;-41
2022/10/04 13:10:00;;;;;;;2.83;1.10;;;21.60;57.40;;;;;;5049428;28;20155;-39
2022/10/04 13:13:03;;;;;;;1.10;0.80;;;21.50;57.40;;;;;;5050464;28;20036;-39
2022/10/04 13:15:33;;;;;;;1.45;1.15;;;21.60;57.50;;;;;;5050110;28;20423;-39
2022/10/04 13:18:31;;;;;;;1.30;0.90;;;21.60;57.50;;;;;;5049916;28;20025;-39
2022/10/04 13:21:07;;;;;;;1.33;0.93;;;21.60;57.50;;;;;;5047024;28;20029;-39
2022/10/04 13:23:48;;;;;;;2.08;0.80;;;21.60;57.60;;;;;;5048517;28;20036;-40
2022/10/04 13:26:57;;;;;;;1.67;1.00;;;21.60;57.50;;;;;;5049225;28;20060;-39
2022/10/04 13:29:31;;;;;;;2.05;1.05;;;21.60;57.50;;;;;;5044398;28;20068;-40
2022/10/04 13:32:17;;;;;;;2.20;1.30;;;21.60;57.50;;;;;;5053129;28;20037;-43
2022/10/04 13:34:55;;;;;;;2.53;0.88;;;21.60;57.60;;;;;;5054043;28;20051;-39
2022/10/04 13:37:27;;;;;;;1.83;0.90;;;21.70;57.60;;;;;;5054317;28;20032;-44
2022/10/04 13:40:10;;;;;;;1.35;0.90;;;21.60;57.60;;;;;;5052635;28;20017;-40
2022/10/04 13:43:07;;;;;;;2.17;0.90;;;21.70;57.70;;;;;;5042252;28;20493;-44
2022/10/04 13:45:48;;;;;;;1.45;0.90;;;21.70;57.70;;;;;;5053673;28;20041;-39
2022/10/04 13:48:28;;;;;;;2.22;1.00;;;21.70;57.70;;;;;;5046865;28;20044;-39
2022/10/04 13:51:17;;;;;;;1.30;0.90;;;21.70;57.60;;;;;;5052856;28;20027;-41
2022/10/04 13:57:20;;;;;;;1.38;0.90;;;21.70;57.70;;;;;;5053386;28;20044;-54
2022/10/04 13:59:48;;;;;;;1.60;1.02;;;21.70;57.70;;;;;;5053407;28;20021;-39
2022/10/04 14:02:20;;;;;;;1.90;0.90;;;21.70;57.70;;;;;;5053275;28;20033;-39
2022/10/04 14:04:57;;;;;;;2.55;0.90;;;21.70;57.70;;;;;;5053416;28;20096;-39
2022/10/04 14:07:23;;;;;;;1.20;0.98;;;21.70;57.80;;;;;;5053521;28;20377;-39
2022/10/04 14:10:14;;;;;;;3.08;1.23;;;21.70;57.70;;;;;;5052927;28;20040;-39
2022/10/04 14:12:47;;;;;;;1.60;1.00;;;21.70;57.70;;;;;;5053292;28;20032;-39
2022/10/04 14:15:37;;;;;;;2.92;1.50;;;21.70;57.50;;;;;;5047750;28;20490;-40